createdAt,value
2022-08-19T00:01:44.828Z,20.83
2022-08-19T00:04:25.515Z,20.77
2022-08-19T00:06:53.369Z,20.74
2022-08-19T00:09:22.416Z,20.75
2022-08-19T00:11:50.213Z,20.71
2022-08-19T00:14:18.250Z,20.72
2022-08-19T00:16:47.040Z,20.73
2022-08-19T00:19:15.082Z,20.63
2022-08-19T00:21:44.536Z,20.73
2022-08-19T00:24:14.287Z,20.72
2022-08-19T00:26:43.778Z,20.72
2022-08-19T00:29:14.508Z,20.61
2022-08-19T00:31:46.365Z,20.62
2022-08-19T00:34:17.475Z,20.55
2022-08-19T00:37:28.728Z,20.54
2022-08-19T00:39:46.099Z,20.53
2022-08-19T00:45:21.420Z,20.42
2022-08-19T00:47:48.653Z,20.40
2022-08-19T00:50:19.259Z,20.28
2022-08-19T00:52:49.325Z,20.32
2022-08-19T00:55:20.599Z,20.35
2022-08-19T00:57:55.534Z,20.10
2022-08-19T01:00:24.146Z,20.30
2022-08-19T01:02:51.803Z,20.31
2022-08-19T01:05:23.602Z,20.30
2022-08-19T01:11:27.323Z,20.12
2022-08-19T01:14:10.967Z,20.16
2022-08-19T01:16:40.078Z,20.16
2022-08-19T01:19:19.861Z,20.15
2022-08-19T01:21:51.931Z,19.98
2022-08-19T01:24:18.984Z,20.08
2022-08-19T01:26:48.252Z,20.02
2022-08-19T01:29:16.176Z,20.11
2022-08-19T01:31:43.828Z,20.09
2022-08-19T01:34:11.380Z,19.98
2022-08-19T01:36:46.709Z,20.01
2022-08-19T01:39:20.210Z,20.02
2022-08-19T01:41:49.119Z,19.90
2022-08-19T01:44:18.781Z,19.95
2022-08-19T01:46:48.536Z,19.96
2022-08-19T01:49:18.492Z,19.90
2022-08-19T01:51:45.421Z,19.66
2022-08-19T01:54:23.145Z,19.80
2022-08-19T01:57:02.420Z,19.80
2022-08-19T01:59:30.473Z,19.82
2022-08-19T02:01:57.477Z,19.88
2022-08-19T02:04:26.487Z,19.69
2022-08-19T02:06:53.447Z,19.78
2022-08-19T02:09:20.549Z,19.73
2022-08-19T02:11:47.614Z,19.56
2022-08-19T02:14:14.786Z,19.66
2022-08-19T02:16:42.091Z,19.61
2022-08-19T02:19:09.064Z,19.64
2022-08-19T02:21:36.279Z,19.37
2022-08-19T02:24:04.395Z,19.54
2022-08-19T02:26:33.249Z,19.53
2022-08-19T02:29:01.322Z,19.30
2022-08-19T02:31:29.065Z,19.49
2022-08-19T02:33:57.759Z,19.44
2022-08-19T02:36:26.569Z,19.49
2022-08-19T02:38:54.726Z,19.50
2022-08-19T02:41:29.107Z,19.46
2022-08-19T02:44:22.967Z,19.52
2022-08-19T02:46:47.336Z,19.47
2022-08-19T02:49:17.184Z,19.48
2022-08-19T02:51:46.435Z,19.54
2022-08-19T02:54:14.635Z,19.58
2022-08-19T02:56:44.091Z,19.61
2022-08-19T02:59:12.086Z,19.65
2022-08-19T03:01:42.322Z,19.74
2022-08-19T03:04:16.709Z,19.76
2022-08-19T03:06:46.913Z,19.77
2022-08-19T03:09:14.974Z,19.74
2022-08-19T03:11:42.209Z,19.88
2022-08-19T03:14:10.529Z,19.72
2022-08-19T03:16:49.189Z,19.93
2022-08-19T03:19:20.074Z,19.96
2022-08-19T03:21:47.228Z,20.02
2022-08-19T03:24:15.085Z,20.03
2022-08-19T03:26:44.201Z,20.19
2022-08-19T03:29:13.225Z,20.00
2022-08-19T03:31:52.229Z,20.33
2022-08-19T03:34:27.297Z,20.48
2022-08-19T03:36:56.975Z,20.81
2022-08-19T03:39:25.457Z,21.28
2022-08-19T03:42:31.844Z,21.72
2022-08-19T03:44:43.269Z,22.38
2022-08-19T03:47:10.151Z,22.73
2022-08-19T03:49:37.601Z,22.96
2022-08-19T03:52:08.311Z,22.51
2022-08-19T03:54:36.334Z,22.45
2022-08-19T03:57:04.143Z,22.15
2022-08-19T03:59:34.756Z,22.07
2022-08-19T04:02:10.938Z,22.11
2022-08-19T04:04:40.741Z,22.06
2022-08-19T04:07:07.875Z,21.69
2022-08-19T04:09:35.505Z,21.79
2022-08-19T04:12:02.603Z,21.91
2022-08-19T04:14:34.818Z,21.99
2022-08-19T04:17:05.975Z,22.12
2022-08-19T04:19:36.119Z,22.03
2022-08-19T04:22:03.778Z,21.96
2022-08-19T04:24:31.297Z,21.99
2022-08-19T04:27:01.228Z,22.04
2022-08-19T04:29:28.430Z,22.05
2022-08-19T04:31:56.762Z,22.07
2022-08-19T04:34:26.494Z,22.02
2022-08-19T04:36:54.648Z,21.80
2022-08-19T04:39:44.854Z,21.99
2022-08-19T04:42:31.335Z,22.06
2022-08-19T04:44:59.703Z,22.24
2022-08-19T04:47:49.212Z,22.35
2022-08-19T04:50:15.275Z,22.56
2022-08-19T04:52:46.127Z,22.73
2022-08-19T04:55:14.682Z,22.72
2022-08-19T04:57:41.695Z,22.40
2022-08-19T05:00:12.519Z,22.65
2022-08-19T05:02:39.796Z,22.62
2022-08-19T05:05:07.788Z,22.56
2022-08-19T05:07:35.389Z,22.61
2022-08-19T05:10:04.027Z,22.45
2022-08-19T05:12:31.175Z,22.64
2022-08-19T05:14:59.701Z,22.68
2022-08-19T05:17:30.288Z,22.79
2022-08-19T05:20:19.380Z,22.97
2022-08-19T05:22:48.131Z,23.16
2022-08-19T05:25:20.607Z,23.28
2022-08-19T05:27:48.797Z,23.68
2022-08-19T05:30:16.915Z,23.82
2022-08-19T05:32:44.630Z,23.68
2022-08-19T05:35:12.724Z,23.63
2022-08-19T05:37:42.777Z,23.68
2022-08-19T05:40:11.163Z,23.94
2022-08-19T05:42:38.747Z,24.12
2022-08-19T05:45:07.764Z,24.08
2022-08-19T05:47:36.175Z,24.09
2022-08-19T05:50:10.019Z,24.24
2022-08-19T05:52:45.890Z,24.27
2022-08-19T05:55:17.152Z,24.27
2022-08-19T05:57:44.485Z,24.12
2022-08-19T06:00:12.580Z,24.10
2022-08-19T06:02:40.773Z,24.15
2022-08-19T06:05:10.195Z,24.27
2022-08-19T06:07:38.032Z,24.01
2022-08-19T06:10:08.291Z,23.77
2022-08-19T06:12:36.657Z,23.87
2022-08-19T06:15:14.658Z,23.95
2022-08-19T06:17:42.973Z,23.87
2022-08-19T06:20:14.287Z,23.95
2022-08-19T06:22:44.230Z,23.82
2022-08-19T06:25:12.724Z,23.77
2022-08-19T06:27:58.602Z,23.68
2022-08-19T06:30:28.238Z,23.75
2022-08-19T06:32:55.232Z,23.83
2022-08-19T06:35:22.332Z,24.07
2022-08-19T06:37:49.422Z,24.07
2022-08-19T06:40:16.507Z,24.05
2022-08-19T06:42:55.088Z,24.13
2022-08-19T06:45:25.002Z,24.12
2022-08-19T06:48:01.105Z,24.35
2022-08-19T06:50:28.576Z,24.37
2022-08-19T06:52:55.608Z,24.41
2022-08-19T06:55:22.879Z,24.78
2022-08-19T06:57:54.666Z,25.10
2022-08-19T07:00:21.970Z,25.14
2022-08-19T07:02:54.691Z,25.45
2022-08-19T07:05:24.708Z,25.51
2022-08-19T07:07:51.873Z,25.58
2022-08-19T07:10:20.105Z,25.60
2022-08-19T07:12:47.568Z,25.80
2022-08-19T07:15:16.614Z,25.79
2022-08-19T07:17:44.677Z,26.04
2022-08-19T07:20:13.853Z,26.03
2022-08-19T07:22:41.222Z,25.81
2022-08-19T07:25:10.224Z,25.93
2022-08-19T07:27:39.787Z,25.99
2022-08-19T07:30:12.130Z,25.90
2022-08-19T07:32:40.647Z,26.29
2022-08-19T07:35:08.682Z,26.28
2022-08-19T07:37:38.143Z,26.36
2022-08-19T07:40:08.238Z,26.35
2022-08-19T07:42:35.214Z,26.33
2022-08-19T07:45:02.456Z,26.41
2022-08-19T07:47:48.015Z,26.67
2022-08-19T07:50:20.381Z,26.43
2022-08-19T07:52:49.693Z,26.35
2022-08-19T07:55:41.224Z,26.34
2022-08-19T07:58:06.599Z,26.32
2022-08-19T08:00:33.641Z,26.09
2022-08-19T08:03:00.801Z,26.43
2022-08-19T08:05:46.798Z,26.54
2022-08-19T08:08:32.284Z,26.54
2022-08-19T08:11:01.052Z,26.23
2022-08-19T08:13:29.041Z,25.97
2022-08-19T08:15:57.133Z,25.81
2022-08-19T08:18:27.934Z,25.72
2022-08-19T08:20:58.773Z,25.61
2022-08-19T08:23:26.944Z,25.78
2022-08-19T08:25:59.033Z,25.93
2022-08-19T08:28:29.685Z,25.81
2022-08-19T08:31:00.369Z,25.83
2022-08-19T08:33:33.533Z,25.98
2022-08-19T08:36:04.035Z,26.14
2022-08-19T08:38:38.765Z,26.19
2022-08-19T08:41:34.586Z,26.15
2022-08-19T08:44:05.651Z,26.20
2022-08-19T08:46:43.400Z,25.95
2022-08-19T08:50:00.501Z,25.85
2022-08-19T08:52:32.113Z,25.85
2022-08-19T08:55:09.984Z,25.63
2022-08-19T08:58:01.074Z,25.81
2022-08-19T09:00:33.561Z,25.80
2022-08-19T09:03:06.567Z,25.81
2022-08-19T09:05:54.742Z,25.51
2022-08-19T09:08:41.187Z,25.87
2022-08-19T09:11:42.402Z,25.54
2022-08-19T09:14:49.753Z,25.90
2022-08-19T09:17:18.354Z,25.99
2022-08-19T09:19:56.563Z,26.14
2022-08-19T09:22:25.941Z,26.30
2022-08-19T09:24:55.177Z,26.25
2022-08-19T09:27:42.058Z,26.00
2022-08-19T09:30:15.750Z,25.94
2022-08-19T09:32:44.002Z,26.13
2022-08-19T09:35:12.204Z,25.84
2022-08-19T09:37:39.486Z,25.99
2022-08-19T09:40:09.210Z,25.87
2022-08-19T09:42:39.243Z,25.84
2022-08-19T09:45:24.222Z,25.88
2022-08-19T09:47:54.802Z,26.26
2022-08-19T09:50:23.904Z,26.27
2022-08-19T09:52:56.998Z,26.39
2022-08-19T09:55:31.288Z,26.22
2022-08-19T09:58:01.376Z,26.36
2022-08-19T10:00:29.138Z,26.43
2022-08-19T10:02:56.017Z,26.42
2022-08-19T10:05:42.485Z,26.38
2022-08-19T10:08:13.455Z,26.25
2022-08-19T10:10:46.222Z,26.26
2022-08-19T10:13:18.543Z,26.38
2022-08-19T10:15:47.936Z,26.43
2022-08-19T10:18:18.849Z,26.55
2022-08-19T10:20:51.723Z,26.63
2022-08-19T10:23:22.048Z,26.88
2022-08-19T10:25:50.785Z,26.84
2022-08-19T10:28:22.625Z,26.81
2022-08-19T10:30:50.936Z,26.90
2022-08-19T10:33:38.548Z,26.63
2022-08-19T10:36:11.749Z,26.52
2022-08-19T10:38:39.323Z,26.63
2022-08-19T10:41:24.366Z,26.67
2022-08-19T10:43:57.586Z,26.56
2022-08-19T10:46:33.671Z,26.55
2022-08-19T10:49:06.206Z,26.52
2022-08-19T10:51:52.043Z,26.54
2022-08-19T10:54:31.429Z,26.48
2022-08-19T10:57:00.781Z,26.65
2022-08-19T10:59:35.208Z,26.61
2022-08-19T11:02:05.919Z,26.56
2022-08-19T11:04:34.358Z,26.66
2022-08-19T11:07:05.629Z,26.72
2022-08-19T11:09:34.344Z,26.60
2022-08-19T11:12:02.722Z,26.29
2022-08-19T11:14:34.102Z,26.65
2022-08-19T11:17:02.962Z,26.87
2022-08-19T11:19:29.938Z,26.92
2022-08-19T11:21:57.692Z,26.90
2022-08-19T11:24:28.491Z,26.98
2022-08-19T11:27:02.224Z,26.92
2022-08-19T11:29:30.189Z,26.67
2022-08-19T11:31:57.105Z,26.71
2022-08-19T11:34:29.314Z,26.80
2022-08-19T11:36:59.714Z,27.06
2022-08-19T11:39:29.575Z,26.96
2022-08-19T11:41:57.176Z,26.97
2022-08-19T11:44:24.541Z,27.01
2022-08-19T11:46:53.469Z,26.94
2022-08-19T11:49:22.241Z,26.84
2022-08-19T11:51:51.663Z,26.82
2022-08-19T11:54:21.070Z,26.54
2022-08-19T11:56:50.148Z,26.86
2022-08-19T11:59:17.314Z,26.74
2022-08-19T12:01:44.573Z,26.89
2022-08-19T12:04:12.205Z,26.71
2022-08-19T12:06:40.870Z,26.83
2022-08-19T12:09:10.360Z,26.79
2022-08-19T12:11:39.290Z,26.71
2022-08-19T12:14:07.409Z,26.82
2022-08-19T12:16:34.738Z,27.08
2022-08-19T12:19:05.614Z,26.75
2022-08-19T12:21:35.717Z,26.91
2022-08-19T12:24:05.393Z,26.94
2022-08-19T12:26:34.163Z,27.02
2022-08-19T12:29:07.873Z,26.98
2022-08-19T12:31:35.414Z,26.94
2022-08-19T12:34:03.467Z,26.96
2022-08-19T12:36:30.527Z,26.76
2022-08-19T12:39:00.736Z,27.08
2022-08-19T12:41:27.829Z,27.03
2022-08-19T12:43:54.856Z,27.06
2022-08-19T12:46:22.749Z,27.23
2022-08-19T12:48:55.472Z,27.06
2022-08-19T12:51:23.877Z,27.04
2022-08-19T12:53:50.916Z,26.96
2022-08-19T12:56:22.851Z,26.93
2022-08-19T12:58:52.988Z,26.89
2022-08-19T13:01:23.187Z,26.75
2022-08-19T13:03:53.618Z,26.62
2022-08-19T13:06:21.400Z,26.86
2022-08-19T13:08:48.817Z,26.96
2022-08-19T13:11:18.936Z,26.92
2022-08-19T13:13:49.703Z,26.99
2022-08-19T13:16:16.797Z,26.79
2022-08-19T13:18:47.554Z,26.82
2022-08-19T13:21:17.202Z,26.85
2022-08-19T13:23:45.744Z,26.81
2022-08-19T13:26:13.979Z,26.87
2022-08-19T13:29:01.368Z,26.66
2022-08-19T13:31:50.408Z,26.71
2022-08-19T13:34:22.107Z,26.65
2022-08-19T13:36:49.071Z,26.83
2022-08-19T13:39:16.221Z,26.72
2022-08-19T13:41:50.950Z,26.71
2022-08-19T13:44:22.228Z,26.67
2022-08-19T13:46:54.319Z,26.69
2022-08-19T13:49:22.436Z,26.85
2022-08-19T13:51:49.358Z,26.91
2022-08-19T13:54:16.597Z,26.82
2022-08-19T13:56:45.530Z,26.62
2022-08-19T13:59:13.155Z,26.60
2022-08-19T14:01:41.276Z,26.33
2022-08-19T14:04:09.286Z,26.43
2022-08-19T14:06:36.701Z,26.28
2022-08-19T14:09:04.350Z,26.48
2022-08-19T14:11:33.515Z,26.52
2022-08-19T14:14:00.544Z,26.49
2022-08-19T14:16:28.377Z,26.47
2022-08-19T14:18:56.091Z,26.42
2022-08-19T14:21:25.373Z,26.41
2022-08-19T14:23:53.772Z,26.32
2022-08-19T14:26:22.359Z,26.40
2022-08-19T14:28:50.423Z,26.29
2022-08-19T14:31:20.151Z,26.28
2022-08-19T14:33:48.788Z,26.08
2022-08-19T14:36:16.306Z,26.25
2022-08-19T14:38:44.017Z,26.41
2022-08-19T14:41:23.548Z,26.40
2022-08-19T14:43:52.867Z,26.30
2022-08-19T14:46:26.274Z,26.17
2022-08-19T14:48:56.428Z,26.07
2022-08-19T14:51:25.063Z,26.04
2022-08-19T14:53:52.119Z,25.73
2022-08-19T14:56:25.085Z,25.72
2022-08-19T14:58:53.575Z,25.79
2022-08-19T15:01:22.677Z,25.64
2022-08-19T15:03:50.750Z,25.65
2022-08-19T15:06:18.161Z,25.44
2022-08-19T15:08:46.003Z,25.50
2022-08-19T15:11:21.034Z,25.57
2022-08-19T15:13:49.128Z,25.57
2022-08-19T15:16:18.104Z,25.41
2022-08-19T15:18:47.348Z,25.40
2022-08-19T15:21:26.961Z,25.40
2022-08-19T15:23:57.752Z,25.35
2022-08-19T15:26:27.365Z,25.43
2022-08-19T15:28:55.273Z,25.38
2022-08-19T15:31:28.537Z,25.34
2022-08-19T15:33:58.755Z,25.30
2022-08-19T15:36:27.214Z,25.21
2022-08-19T15:38:56.127Z,25.26
2022-08-19T15:41:28.239Z,25.19
2022-08-19T15:43:59.788Z,25.12
2022-08-19T15:46:31.031Z,25.14
2022-08-19T15:48:59.789Z,25.03
2022-08-19T15:51:29.837Z,24.78
2022-08-19T15:53:58.357Z,24.83
2022-08-19T15:56:47.587Z,24.70
2022-08-19T15:59:46.925Z,24.79
2022-08-19T16:02:34.880Z,24.75
2022-08-19T16:05:25.196Z,24.65
2022-08-19T16:07:52.704Z,24.64
2022-08-19T16:10:26.205Z,24.63
2022-08-19T16:12:57.645Z,24.58
2022-08-19T16:15:30.590Z,24.51
2022-08-19T16:17:59.097Z,24.46
2022-08-19T16:20:27.561Z,24.42
2022-08-19T16:22:56.539Z,24.35
2022-08-19T16:25:27.691Z,24.22
2022-08-19T16:28:06.301Z,24.24
2022-08-19T16:30:37.734Z,24.14
2022-08-19T16:33:05.043Z,24.02
2022-08-19T16:35:32.098Z,24.03
2022-08-19T16:37:59.298Z,23.97
2022-08-19T16:40:26.545Z,23.83
2022-08-19T16:42:53.667Z,23.81
2022-08-19T16:45:21.961Z,23.74
2022-08-19T16:47:50.726Z,23.71
2022-08-19T16:50:29.225Z,23.65
2022-08-19T16:53:07.681Z,23.39
2022-08-19T16:55:34.612Z,23.46
2022-08-19T16:58:05.156Z,23.50
2022-08-19T17:00:32.282Z,23.42
2022-08-19T17:03:14.778Z,23.27
2022-08-19T17:05:49.506Z,23.13
2022-08-19T17:08:18.581Z,23.27
2022-08-19T17:11:07.860Z,23.20
2022-08-19T17:13:34.905Z,23.05
2022-08-19T17:16:02.527Z,23.07
2022-08-19T17:18:31.680Z,22.85
2022-08-19T17:21:00.179Z,22.98
2022-08-19T17:23:43.272Z,22.92
2022-08-19T17:26:17.966Z,22.89
2022-08-19T17:28:49.829Z,22.57
2022-08-19T17:31:19.524Z,22.82
2022-08-19T17:33:48.364Z,22.79
2022-08-19T17:36:17.922Z,22.76
2022-08-19T17:38:45.397Z,22.66
2022-08-19T17:41:12.291Z,22.62
2022-08-19T17:43:43.280Z,22.65
2022-08-19T17:46:17.727Z,22.55
2022-08-19T17:49:28.705Z,22.47
2022-08-19T17:52:15.509Z,22.43
2022-08-19T17:54:46.838Z,22.02
2022-08-19T17:57:14.808Z,22.15
2022-08-19T17:59:43.209Z,22.32
2022-08-19T18:02:11.937Z,22.16
2022-08-19T18:04:39.380Z,22.18
2022-08-19T18:07:06.784Z,22.14
2022-08-19T18:09:42.114Z,22.11
2022-08-19T18:12:14.125Z,21.78
2022-08-19T18:14:42.009Z,21.88
2022-08-19T18:17:13.122Z,22.03
2022-08-19T18:19:48.809Z,22.00
2022-08-19T18:22:48.311Z,21.91
2022-08-19T18:25:24.242Z,21.85
2022-08-19T18:27:53.599Z,21.66
2022-08-19T18:30:22.298Z,21.39
2022-08-19T18:32:52.690Z,21.65
2022-08-19T18:35:29.787Z,21.55
2022-08-19T18:38:00.566Z,21.47
2022-08-19T18:40:47.602Z,21.39
2022-08-19T18:43:27.042Z,21.38
2022-08-19T18:46:13.199Z,21.31
2022-08-19T18:48:58.989Z,21.28
2022-08-19T18:51:29.996Z,21.11
2022-08-19T18:53:58.946Z,21.22
2022-08-19T18:56:31.931Z,21.14
2022-08-19T18:58:59.957Z,21.13
2022-08-19T19:01:34.567Z,21.14
2022-08-19T19:04:07.023Z,21.11
2022-08-19T19:06:40.071Z,21.12
2022-08-19T19:09:09.795Z,21.07
2022-08-19T19:11:40.256Z,21.05
2022-08-19T19:14:19.226Z,21.02
2022-08-19T19:17:02.097Z,20.96
2022-08-19T19:19:30.714Z,20.95
2022-08-19T19:21:58.701Z,20.67
2022-08-19T19:24:29.992Z,20.70
2022-08-19T19:26:58.638Z,20.88
2022-08-19T19:29:26.517Z,20.78
2022-08-19T19:31:56.059Z,20.78
2022-08-19T19:34:29.553Z,20.60
2022-08-19T19:36:58.059Z,20.51
2022-08-19T19:39:30.653Z,20.72
2022-08-19T19:42:19.888Z,20.66
2022-08-19T19:44:54.578Z,20.60
2022-08-19T19:47:24.593Z,20.51
2022-08-19T19:50:13.292Z,20.47
2022-08-19T19:52:41.230Z,20.49
2022-08-19T19:55:09.581Z,20.46
2022-08-19T19:57:41.078Z,20.37
2022-08-19T20:00:09.814Z,20.34
2022-08-19T20:02:36.704Z,20.34
2022-08-19T20:05:04.674Z,20.19
2022-08-19T20:07:50.663Z,20.19
2022-08-19T20:10:22.448Z,20.21
2022-08-19T20:12:52.084Z,20.18
2022-08-19T20:15:19.377Z,20.15
2022-08-19T20:17:47.701Z,20.13
2022-08-19T20:20:16.807Z,20.12
2022-08-19T20:22:47.628Z,19.93
2022-08-19T20:25:22.185Z,20.03
2022-08-19T20:27:50.752Z,19.82
2022-08-19T20:30:20.603Z,19.95
2022-08-19T20:32:49.045Z,19.93
2022-08-19T20:35:19.476Z,19.89
2022-08-19T20:37:47.555Z,19.90
2022-08-19T20:40:16.397Z,19.95
2022-08-19T20:42:55.365Z,19.90
2022-08-19T20:45:30.920Z,19.79
2022-08-19T20:48:03.598Z,19.83
2022-08-19T20:50:31.370Z,19.58
2022-08-19T20:52:58.791Z,19.58
2022-08-19T20:55:27.494Z,19.63
2022-08-19T20:57:58.794Z,19.70
2022-08-19T21:00:26.018Z,19.69
2022-08-19T21:02:56.382Z,19.60
2022-08-19T21:05:26.221Z,19.76
2022-08-19T21:07:57.745Z,19.74
2022-08-19T21:10:26.302Z,19.59
2022-08-19T21:12:53.608Z,19.44
2022-08-19T21:15:21.045Z,19.56
2022-08-19T21:17:48.791Z,19.59
2022-08-19T21:20:16.055Z,19.50
2022-08-19T21:22:43.887Z,19.52
2022-08-19T21:25:11.581Z,19.48
2022-08-19T21:27:42.242Z,19.45
2022-08-19T21:30:10.174Z,19.46
2022-08-19T21:32:37.384Z,19.43
2022-08-19T21:35:04.738Z,19.17
2022-08-19T21:37:34.813Z,19.37
2022-08-19T21:40:02.183Z,19.33
2022-08-19T21:42:30.651Z,19.15
2022-08-19T21:44:57.799Z,19.36
2022-08-19T21:47:24.887Z,19.29
2022-08-19T21:49:52.042Z,19.29
2022-08-19T21:52:26.455Z,19.19
2022-08-19T21:54:55.402Z,19.15
2022-08-19T21:57:24.612Z,19.17
2022-08-19T21:59:53.074Z,19.10
2022-08-19T22:02:21.446Z,19.17
2022-08-19T22:04:50.801Z,18.94
2022-08-19T22:07:19.386Z,19.15
2022-08-19T22:09:49.014Z,18.96
2022-08-19T22:12:25.346Z,18.90
2022-08-19T22:14:54.121Z,19.01
2022-08-19T22:17:22.875Z,19.03
2022-08-19T22:19:52.537Z,19.03
2022-08-19T22:22:25.193Z,18.89
2022-08-19T22:24:52.899Z,18.96
2022-08-19T22:27:20.821Z,18.94
2022-08-19T22:29:52.537Z,18.32
2022-08-19T22:32:28.296Z,18.87
2022-08-19T22:34:58.802Z,18.90
2022-08-19T22:37:25.990Z,18.71
2022-08-19T22:39:53.050Z,18.71
2022-08-19T22:42:22.103Z,18.82
2022-08-19T22:44:49.622Z,18.73
2022-08-19T22:47:32.017Z,18.90
2022-08-19T22:50:05.805Z,18.90
2022-08-19T22:52:34.072Z,18.69
2022-08-19T22:55:06.157Z,18.81
2022-08-19T22:57:33.556Z,18.81
2022-08-19T23:00:01.470Z,18.76
2022-08-19T23:02:34.785Z,18.49
2022-08-19T23:05:07.879Z,18.54
2022-08-19T23:07:34.817Z,18.37
2022-08-19T23:10:02.536Z,18.46
2022-08-19T23:12:38.153Z,18.48
2022-08-19T23:15:12.257Z,18.47
2022-08-19T23:17:42.334Z,18.34
2022-08-19T23:20:14.275Z,18.40
2022-08-19T23:22:43.250Z,18.35
2022-08-19T23:25:13.362Z,18.21
2022-08-19T23:27:59.193Z,18.26
2022-08-19T23:30:26.572Z,18.18
2022-08-19T23:33:21.561Z,18.05
2022-08-19T23:35:48.833Z,18.05
2022-08-19T23:38:16.123Z,17.98
2022-08-19T23:40:43.332Z,17.96
2022-08-19T23:43:10.307Z,17.84
2022-08-19T23:46:10.683Z,17.78
2022-08-19T23:48:39.803Z,17.66
2022-08-19T23:51:10.260Z,17.68
2022-08-19T23:53:39.189Z,17.61
2022-08-19T23:56:07.626Z,17.63
2022-08-19T23:58:36.473Z,17.61
